Pagrindinis puslapis
METAR-TAF:

METAR-TAF

Oro uostai :

Oro pajėgų bazė

Anapolis, Gojasas, Brazilija

platuma: 16-14S, ilguma: 048-58W, Aukštis: 1137 m

Dabartinis oras

Ataskaita buvo paskelbta 1 valandą ir 10 minutes, ne 21:00 UTC
Vėjas 6 kt iš Rytų
Temperatūra 29°C
Drėgmė 12%
Slėgis 1018 hPa
Matomumas 10 km arba daugiau
nėra debesų žemiau 1500 m ir nėra kamuolinių lietaus debesų

METAR: SBAN 162100Z 08006KT CAVOK 29/M03 Q1018

Laikas: 19:10 (22:10 UTC)

Prognozė

Ataskaita buvo paskelbta 6 valandos ir 10 minutes, ne 16:00 UTC
Prognozė galioja nuo 16 metu 18 UTC su 17 metu 06 UTC
Vėjas 8 kt iš Rytų
Matomumas 10 km arba daugiau
nėra debesų žemiau 1500 m ir nėra kamuolinių lietaus debesų
Tapsmas
nuo 17 metu 04 UTC su 17 metu 06 UTC
Vėjas 8 kt iš Rytų

TAF: SBAN 161600Z 1618/1706 10008KT CAVOK TX31/1618Z TN20/1706Z BECMG 1704/1706 08008KT RMK PAY

Orai ataskaitas ir orų prognozės (METAR, TAF).

turimą stotys yra geltonos ir raudonos taškus žemėlapyje.

Perkelti pele per norėdami pamatyti stoties vardą.

Tada spustelėkite, norėdami matyti oro stebėjimo ir prognozės.

Norėdami pakeisti žemėlapį: spustelėkite ant žalios mygtukų su juodo kryžiaus žemyn,; žalią mygtuką su brūkšneliu, jei norite nutolinti; arba žalių rodyklių gretimoms žemėlapius.


METAR-TAF: